createdAt,value
2023-04-21T00:00:24.104Z,100144.84
2023-04-21T00:03:04.181Z,100141.44
2023-04-21T00:05:50.901Z,100142.88
2023-04-21T00:08:31.828Z,100129.97
2023-04-21T00:11:18.737Z,100131.25
2023-04-21T00:13:58.765Z,100128.66
2023-04-21T00:16:45.629Z,100118.25
2023-04-21T00:19:26.745Z,100123.94
2023-04-21T00:22:18.669Z,100122.00
2023-04-21T00:25:05.672Z,100117.28
2023-04-21T00:27:52.749Z,100122.50
2023-04-21T00:30:39.759Z,100121.84
2023-04-21T00:33:26.624Z,100121.53
2023-04-21T00:36:06.749Z,100114.41
2023-04-21T00:38:53.678Z,100113.09
2023-04-21T00:41:36.280Z,100111.97
2023-04-21T00:44:22.669Z,100118.91
2023-04-21T00:47:03.779Z,100113.09
2023-04-21T00:49:50.617Z,100113.22
2023-04-21T00:52:31.708Z,100109.91
2023-04-21T00:55:18.593Z,100103.88
2023-04-21T00:58:05.614Z,100104.81
2023-04-21T01:00:52.708Z,100109.00
2023-04-21T01:03:39.706Z,100095.56
2023-04-21T01:06:20.194Z,100097.22
2023-04-21T01:09:06.605Z,100092.66
2023-04-21T01:12:13.330Z,100091.94
2023-04-21T01:15:00.593Z,100090.75
2023-04-21T01:17:54.685Z,100088.94
2023-04-21T01:20:42.845Z,100090.34
2023-04-21T01:23:22.712Z,100080.31
2023-04-21T01:26:09.639Z,100078.13
2023-04-21T01:28:49.675Z,100075.66
2023-04-21T01:31:36.583Z,100082.25
2023-04-21T01:34:16.715Z,100064.59
2023-04-21T01:37:03.515Z,100066.31
2023-04-21T01:40:00.612Z,100066.69
2023-04-21T01:42:49.612Z,100068.19
2023-04-21T01:45:29.680Z,100073.72
2023-04-21T01:48:17.700Z,100071.66
2023-04-21T01:51:04.544Z,100072.78
2023-04-21T01:53:51.592Z,100066.81
2023-04-21T01:56:38.614Z,100067.53
2023-04-21T01:59:19.252Z,100061.47
2023-04-21T02:02:06.671Z,100065.97
2023-04-21T02:04:46.960Z,100070.00
2023-04-21T02:07:34.493Z,100069.94
2023-04-21T02:10:15.092Z,100066.94
2023-04-21T02:13:01.511Z,100061.78
2023-04-21T02:15:57.071Z,100058.88
2023-04-21T02:18:44.651Z,100054.53
2023-04-21T02:21:31.533Z,100053.88
2023-04-21T02:24:11.575Z,100050.38
2023-04-21T02:26:59.551Z,100055.69
2023-04-21T02:29:39.584Z,100061.25
2023-04-21T02:32:26.557Z,100060.94
2023-04-21T02:35:06.979Z,100047.03
2023-04-21T02:37:53.491Z,100051.50
2023-04-21T02:40:33.586Z,100050.69
2023-04-21T02:43:21.532Z,100056.34
2023-04-21T02:46:02.565Z,100049.41
2023-04-21T02:48:49.503Z,100055.91
2023-04-21T02:51:29.577Z,100050.78
2023-04-21T02:54:16.467Z,100044.28
2023-04-21T02:57:03.476Z,100032.47
2023-04-21T02:59:50.459Z,100038.91
2023-04-21T03:02:37.745Z,100039.63
2023-04-21T03:05:24.520Z,100049.84
2023-04-21T03:08:12.440Z,100052.41
2023-04-21T03:10:59.416Z,100043.50
2023-04-21T03:13:46.452Z,100045.94
2023-04-21T03:16:28.119Z,100047.75
2023-04-21T03:19:15.390Z,100049.84
2023-04-21T03:22:02.387Z,100055.00
2023-04-21T03:24:42.523Z,100049.13
2023-04-21T03:27:29.436Z,100058.84
2023-04-21T03:30:10.480Z,100054.34
2023-04-21T03:32:57.618Z,100051.47
2023-04-21T03:35:39.490Z,100054.19
2023-04-21T03:38:26.380Z,100056.16
2023-04-21T03:41:10.550Z,100062.63
2023-04-21T03:43:58.421Z,100047.44
2023-04-21T03:46:39.501Z,100051.78
2023-04-21T03:49:26.424Z,100042.41
2023-04-21T03:52:06.488Z,100041.09
2023-04-21T03:54:53.405Z,100050.63
2023-04-21T03:57:33.563Z,100048.81
2023-04-21T04:00:20.387Z,100069.44
2023-04-21T04:03:07.511Z,100062.44
2023-04-21T04:05:47.757Z,100075.31
2023-04-21T04:08:34.378Z,100073.44
2023-04-21T04:11:21.375Z,100083.50
2023-04-21T04:14:08.496Z,100083.75
2023-04-21T04:16:48.762Z,100093.75
2023-04-21T04:19:35.404Z,100094.34
2023-04-21T04:22:22.437Z,100099.22
2023-04-21T04:25:04.363Z,100092.28
2023-04-21T04:27:45.136Z,100099.06
2023-04-21T04:30:34.360Z,100095.31
2023-04-21T04:33:14.676Z,100092.44
2023-04-21T04:36:01.331Z,100089.31
2023-04-21T04:38:48.383Z,100095.72
2023-04-21T04:41:28.415Z,100096.06
2023-04-21T04:44:15.252Z,100099.50
2023-04-21T04:46:55.822Z,100097.75
2023-04-21T04:49:42.339Z,100100.53
2023-04-21T04:52:29.451Z,100091.22
2023-04-21T04:55:09.729Z,100087.91
2023-04-21T04:57:56.317Z,100093.09
2023-04-21T05:00:37.258Z,100090.63
2023-04-21T05:03:24.425Z,100102.59
2023-04-21T05:06:05.022Z,100088.78
2023-04-21T05:08:52.385Z,100083.63
2023-04-21T05:11:39.283Z,100097.34
2023-04-21T05:14:19.638Z,100097.34
2023-04-21T05:17:06.240Z,100098.91
2023-04-21T05:19:47.422Z,100093.06
2023-04-21T05:22:34.250Z,100090.41
2023-04-21T05:25:16.378Z,100093.44
2023-04-21T05:28:03.270Z,100098.47
2023-04-21T05:30:43.379Z,100095.59
2023-04-21T05:33:31.230Z,100101.84
2023-04-21T05:36:17.384Z,100103.09
2023-04-21T05:39:04.293Z,100109.81
2023-04-21T05:41:44.301Z,100102.06
2023-04-21T05:44:32.277Z,100094.72
2023-04-21T05:47:12.335Z,100099.47
2023-04-21T05:50:00.292Z,100090.06
2023-04-21T05:52:40.383Z,100088.22
2023-04-21T05:55:27.193Z,100095.94
2023-04-21T05:58:07.414Z,100092.34
2023-04-21T06:00:54.256Z,100100.44
2023-04-21T06:03:34.575Z,100111.28
2023-04-21T06:06:22.204Z,100102.81
2023-04-21T06:09:02.427Z,100106.38
2023-04-21T06:11:49.315Z,100113.97
2023-04-21T06:14:29.272Z,100111.09
2023-04-21T06:17:16.168Z,100110.81
2023-04-21T06:19:56.456Z,100124.38
2023-04-21T06:22:43.202Z,100126.38
2023-04-21T06:25:30.159Z,100124.84
2023-04-21T06:28:10.722Z,100132.25
2023-04-21T06:30:57.184Z,100137.31
2023-04-21T06:33:37.643Z,100152.41
2023-04-21T06:36:24.199Z,100150.47
2023-04-21T06:39:11.192Z,100151.25
2023-04-21T06:41:51.284Z,100155.75
2023-04-21T06:44:40.180Z,100152.72
2023-04-21T06:47:27.284Z,100158.22
2023-04-21T06:50:08.978Z,100152.19
2023-04-21T06:52:56.137Z,100159.16
2023-04-21T06:55:36.486Z,100169.09
2023-04-21T06:58:23.150Z,100164.56
2023-04-21T07:01:04.777Z,100168.13
2023-04-21T07:03:52.178Z,100164.84
2023-04-21T07:06:32.517Z,100164.94
2023-04-21T07:09:20.396Z,100164.13
2023-04-21T07:12:01.164Z,100164.75
2023-04-21T07:14:48.120Z,100152.78
2023-04-21T07:17:28.601Z,100161.53
2023-04-21T07:20:15.112Z,100157.13
2023-04-21T07:23:02.165Z,100144.41
2023-04-21T07:40:35.072Z,100148.88
2023-04-21T07:43:22.162Z,100138.94
2023-04-21T07:46:12.319Z,100147.13
2023-04-21T07:49:01.408Z,100147.22
2023-04-21T07:51:50.088Z,100142.28
2023-04-21T07:54:31.610Z,100159.84
2023-04-21T07:57:19.026Z,100158.53
2023-04-21T08:00:07.991Z,100157.41
2023-04-21T08:02:48.196Z,100142.53
2023-04-21T08:05:38.756Z,100158.75
2023-04-21T08:08:30.809Z,100156.41
2023-04-21T08:11:12.391Z,100161.91
2023-04-21T08:14:02.078Z,100172.25
2023-04-21T08:16:44.123Z,100182.53
2023-04-21T08:19:30.920Z,100189.13
2023-04-21T08:22:12.035Z,100184.06
2023-04-21T08:25:00.857Z,100190.50
2023-04-21T08:27:44.000Z,100183.44
2023-04-21T08:30:41.925Z,100179.38
2023-04-21T08:33:26.438Z,100175.59
2023-04-21T08:36:28.858Z,100182.22
2023-04-21T08:39:18.378Z,100165.97
2023-04-21T08:42:09.941Z,100175.56
2023-04-21T08:44:58.618Z,100170.91
2023-04-21T08:47:52.007Z,100167.34
2023-04-21T08:56:43.874Z,100166.56
2023-04-21T08:59:27.600Z,100169.31
2023-04-21T09:02:19.062Z,100160.91
2023-04-21T09:05:03.225Z,100170.13
2023-04-21T09:07:57.252Z,100172.66
2023-04-21T09:10:37.162Z,100163.53
2023-04-21T09:13:44.108Z,100165.97
2023-04-21T09:16:31.823Z,100169.91
2023-04-21T09:19:22.895Z,100160.53
2023-04-21T09:22:09.849Z,100166.56
2023-04-21T09:24:58.346Z,100159.00
2023-04-21T09:28:02.931Z,100163.41
2023-04-21T09:31:00.083Z,100153.22
2023-04-21T09:33:49.723Z,100152.81
2023-04-21T09:36:44.860Z,100145.66
2023-04-21T09:39:49.743Z,100154.72
2023-04-21T09:42:40.961Z,100151.50
2023-04-21T09:45:32.824Z,100148.88
2023-04-21T09:48:24.826Z,100140.03
2023-04-21T09:51:24.287Z,100139.50
2023-04-21T09:57:25.808Z,100136.78
2023-04-21T10:00:14.935Z,100139.78
2023-04-21T10:03:24.885Z,100123.97
2023-04-21T10:06:12.816Z,100137.78
2023-04-21T10:08:58.049Z,100139.31
2023-04-21T10:11:49.779Z,100137.31
2023-04-21T10:14:39.966Z,100132.69
2023-04-21T10:17:31.786Z,100143.44
2023-04-21T10:20:20.810Z,100139.94
2023-04-21T10:23:11.707Z,100132.34
2023-04-21T10:26:13.899Z,100137.19
2023-04-21T10:29:00.335Z,100130.56
2023-04-21T10:32:00.893Z,100133.47
2023-04-21T10:34:46.888Z,100137.09
2023-04-21T10:37:46.826Z,100134.03
2023-04-21T10:43:51.768Z,100136.31
2023-04-21T10:46:42.874Z,100142.91
2023-04-21T10:49:28.749Z,100143.75
2023-04-21T10:52:16.363Z,100139.78
2023-04-21T10:55:02.744Z,100144.41
2023-04-21T10:57:58.878Z,100136.56
2023-04-21T11:00:42.068Z,100137.78
2023-04-21T11:03:28.831Z,100133.63
2023-04-21T11:06:24.056Z,100132.75
2023-04-21T11:09:10.697Z,100142.06
2023-04-21T11:11:50.802Z,100136.50
2023-04-21T11:14:37.700Z,100129.47
2023-04-21T11:17:26.725Z,100145.06
2023-04-21T11:20:14.727Z,100134.28
2023-04-21T11:23:11.688Z,100134.63
2023-04-21T11:25:54.113Z,100128.94
2023-04-21T11:28:40.666Z,100119.44
2023-04-21T11:31:21.102Z,100129.78
2023-04-21T11:34:08.659Z,100127.50
2023-04-21T11:36:55.725Z,100115.47
2023-04-21T11:39:35.849Z,100116.06
2023-04-21T11:42:29.666Z,100114.56
2023-04-21T11:45:19.254Z,100120.56
2023-04-21T11:48:19.573Z,100120.31
2023-04-21T11:51:06.716Z,100123.38
2023-04-21T11:53:47.974Z,100126.84
2023-04-21T11:56:34.749Z,100127.91
2023-04-21T11:59:26.047Z,100136.50
2023-04-21T12:02:05.841Z,100131.25
2023-04-21T12:05:06.826Z,100136.84
2023-04-21T12:07:53.948Z,100134.06
2023-04-21T12:10:40.697Z,100125.75
2023-04-21T12:13:29.546Z,100124.41
2023-04-21T12:16:16.661Z,100129.41
2023-04-21T12:19:03.617Z,100125.06
2023-04-21T12:21:44.036Z,100124.19
2023-04-21T12:24:30.685Z,100128.19
2023-04-21T12:27:12.095Z,100127.31
2023-04-21T12:29:58.829Z,100124.34
2023-04-21T12:32:39.067Z,100111.41
2023-04-21T12:35:25.635Z,100117.59
2023-04-21T12:38:06.354Z,100104.56
2023-04-21T12:40:53.637Z,100115.16
2023-04-21T12:43:33.975Z,100101.69
2023-04-21T12:46:20.687Z,100075.34
2023-04-21T12:49:07.594Z,100089.97
2023-04-21T12:51:54.623Z,100088.13
2023-04-21T12:54:34.980Z,100100.78
2023-04-21T12:57:22.576Z,100097.66
2023-04-21T13:00:04.420Z,100099.47
2023-04-21T13:02:51.699Z,100089.13
2023-04-21T13:05:38.721Z,100097.72
2023-04-21T13:08:18.586Z,100098.03
2023-04-21T13:10:59.114Z,100095.84
2023-04-21T13:13:45.576Z,100102.94
2023-04-21T13:16:27.932Z,100107.63
2023-04-21T13:19:16.570Z,100121.34
2023-04-21T13:21:56.921Z,100113.25
2023-04-21T13:24:43.599Z,100103.28
2023-04-21T13:27:30.577Z,100119.00
2023-04-21T13:30:14.804Z,100117.41
2023-04-21T13:33:01.549Z,100121.03
2023-04-21T13:35:41.655Z,100128.19
2023-04-21T13:38:28.580Z,100134.00
2023-04-21T13:41:15.752Z,100145.66
2023-04-21T13:43:55.512Z,100137.97
2023-04-21T13:46:36.374Z,100134.88
2023-04-21T13:49:24.496Z,100139.03
2023-04-21T13:52:04.907Z,100149.63
2023-04-21T13:54:51.558Z,100133.81
2023-04-21T13:57:45.585Z,100138.75
2023-04-21T14:00:26.016Z,100151.16
2023-04-21T14:03:13.620Z,100136.53
2023-04-21T14:05:54.009Z,100143.16
2023-04-21T14:08:40.535Z,100153.09
2023-04-21T14:11:27.647Z,100153.56
2023-04-21T14:14:10.256Z,100150.88
2023-04-21T14:16:51.631Z,100148.94
2023-04-21T14:19:38.477Z,100143.41
2023-04-21T14:22:19.795Z,100156.63
2023-04-21T14:25:06.487Z,100150.88
2023-04-21T14:27:53.507Z,100148.56
2023-04-21T14:30:35.114Z,100163.75
2023-04-21T14:33:21.558Z,100160.28
2023-04-21T14:36:01.587Z,100158.91
2023-04-21T14:38:49.461Z,100168.97
2023-04-21T14:41:29.532Z,100167.91
2023-04-21T14:44:16.484Z,100175.44
2023-04-21T14:47:08.310Z,100176.94
2023-04-21T14:49:59.436Z,100174.97
2023-04-21T14:52:39.855Z,100172.75
2023-04-21T14:55:26.513Z,100184.28
2023-04-21T14:58:07.452Z,100179.97
2023-04-21T15:00:54.444Z,100171.94
2023-04-21T15:03:34.734Z,100173.53
2023-04-21T15:06:22.451Z,100176.22
2023-04-21T15:09:04.172Z,100178.19
2023-04-21T15:11:51.389Z,100179.13
2023-04-21T15:14:31.582Z,100176.69
2023-04-21T15:17:18.436Z,100171.56
2023-04-21T15:19:58.601Z,100167.03
2023-04-21T15:22:45.377Z,100169.50
2023-04-21T15:25:32.406Z,100162.53
2023-04-21T15:28:13.246Z,100166.91
2023-04-21T15:31:00.457Z,100164.69
2023-04-21T15:33:40.933Z,100162.88
2023-04-21T15:36:27.426Z,100153.72
2023-04-21T15:39:21.340Z,100161.72
2023-04-21T15:42:10.368Z,100155.31
2023-04-21T15:44:51.533Z,100150.19
2023-04-21T15:47:38.404Z,100149.63
2023-04-21T15:50:18.493Z,100149.03
2023-04-21T15:53:05.469Z,100157.00
2023-04-21T15:55:45.610Z,100148.50
2023-04-21T15:58:32.473Z,100151.47
2023-04-21T16:01:12.655Z,100154.34
2023-04-21T16:03:59.837Z,100157.94
2023-04-21T16:06:39.652Z,100156.63
2023-04-21T16:09:27.418Z,100165.91
2023-04-21T16:12:10.240Z,100160.94
2023-04-21T16:15:01.697Z,100158.94
2023-04-21T16:17:49.499Z,100159.03
2023-04-21T16:20:37.408Z,100160.28
2023-04-21T16:23:24.513Z,100166.00
2023-04-21T16:26:06.302Z,100159.22
2023-04-21T16:28:53.339Z,100170.09
2023-04-21T16:31:33.802Z,100163.38
2023-04-21T16:34:20.323Z,100174.66
2023-04-21T16:37:07.341Z,100172.22
2023-04-21T16:39:54.342Z,100166.16
2023-04-21T16:42:34.879Z,100183.38
2023-04-21T16:45:22.479Z,100186.31
2023-04-21T16:48:09.432Z,100184.59
2023-04-21T16:50:56.315Z,100185.88
2023-04-21T16:53:39.610Z,100187.06
2023-04-21T16:56:28.313Z,100191.00
2023-04-21T16:59:15.384Z,100193.91
2023-04-21T17:01:55.695Z,100191.84
2023-04-21T17:04:43.360Z,100199.50
2023-04-21T17:07:30.301Z,100201.56
2023-04-21T17:10:10.897Z,100204.72
2023-04-21T17:12:57.298Z,100204.06
2023-04-21T17:15:37.695Z,100214.56
2023-04-21T17:18:24.251Z,100217.81
2023-04-21T17:21:06.325Z,100221.72
2023-04-21T17:23:53.394Z,100221.44
2023-04-21T17:26:40.261Z,100218.94
2023-04-21T17:29:27.257Z,100213.81
2023-04-21T17:32:07.741Z,100222.44
2023-04-21T17:34:54.257Z,100227.50
2023-04-21T17:37:34.807Z,100223.34
2023-04-21T17:40:22.259Z,100227.59
2023-04-21T17:43:02.610Z,100231.19
2023-04-21T17:45:49.288Z,100228.16
2023-04-21T17:48:29.937Z,100236.16
2023-04-21T17:51:17.254Z,100240.31
2023-04-21T17:53:57.656Z,100244.75
2023-04-21T17:56:44.256Z,100252.69
2023-04-21T17:59:27.471Z,100243.41
2023-04-21T18:02:14.393Z,100240.44
2023-04-21T18:04:54.608Z,100243.00
2023-04-21T18:07:41.252Z,100239.63
2023-04-21T18:10:36.255Z,100239.31
2023-04-21T18:13:16.746Z,100239.31
2023-04-21T18:16:03.363Z,100246.03
2023-04-21T18:18:43.955Z,100246.84
2023-04-21T18:21:31.404Z,100246.56
2023-04-21T18:24:11.679Z,100251.78
2023-04-21T18:26:58.234Z,100254.09
2023-04-21T18:29:38.569Z,100245.97
2023-04-21T18:32:25.189Z,100241.31
2023-04-21T18:35:09.059Z,100245.75
2023-04-21T18:37:56.158Z,100249.47
2023-04-21T18:40:50.178Z,100250.97
2023-04-21T18:43:31.457Z,100249.00
2023-04-21T18:46:18.205Z,100257.94
2023-04-21T18:49:06.054Z,100258.22
2023-04-21T18:51:46.101Z,100257.06
2023-04-21T18:54:27.180Z,100245.75
2023-04-21T18:57:15.178Z,100246.38
2023-04-21T19:00:02.163Z,100243.34
2023-04-21T19:02:50.193Z,100236.19
2023-04-21T19:05:31.853Z,100238.97
2023-04-21T19:08:30.006Z,100239.78
2023-04-21T19:11:24.115Z,100234.06
2023-04-21T19:14:04.260Z,100238.31
2023-04-21T19:16:51.218Z,100240.88
2023-04-21T19:19:31.278Z,100240.09
2023-04-21T19:22:18.148Z,100240.59
2023-04-21T19:24:58.192Z,100247.13
2023-04-21T19:41:54.019Z,100246.34
2023-04-21T19:44:41.056Z,100257.50
2023-04-21T19:47:21.279Z,100248.56
2023-04-21T19:50:08.038Z,100251.03
2023-04-21T19:52:48.055Z,100240.16
2023-04-21T19:55:35.062Z,100254.06
2023-04-21T19:58:24.979Z,100260.25
2023-04-21T20:01:19.009Z,100260.72
2023-04-21T20:04:06.926Z,100262.19
2023-04-21T20:06:47.444Z,100260.25
2023-04-21T20:09:35.086Z,100267.25
2023-04-21T20:12:21.943Z,100268.22
2023-04-21T20:15:02.064Z,100261.22
2023-04-21T20:17:49.016Z,100275.03
2023-04-21T20:20:29.134Z,100273.25
2023-04-21T20:23:15.928Z,100277.94
2023-04-21T20:25:56.447Z,100278.28
2023-04-21T20:28:42.866Z,100272.44
2023-04-21T20:31:25.527Z,100281.50
2023-04-21T20:34:12.926Z,100281.84
2023-04-21T20:36:54.817Z,100280.22
2023-04-21T20:39:44.934Z,100284.91
2023-04-21T20:42:25.060Z,100286.38
2023-04-21T20:45:12.941Z,100291.22
2023-04-21T20:47:53.035Z,100288.47
2023-04-21T20:50:39.952Z,100290.56
2023-04-21T20:53:26.936Z,100298.84
2023-04-21T20:56:07.604Z,100298.84
2023-04-21T20:58:54.868Z,100313.78
2023-04-21T21:01:39.408Z,100305.34
2023-04-21T21:04:26.989Z,100319.78
2023-04-21T21:07:07.348Z,100315.56
2023-04-21T21:09:54.053Z,100314.78
2023-04-21T21:12:40.868Z,100312.66
2023-04-21T21:15:21.097Z,100310.38
2023-04-21T21:18:07.907Z,100310.72
2023-04-21T21:20:54.813Z,100314.28
2023-04-21T21:23:35.709Z,100323.81
2023-04-21T21:26:22.864Z,100324.66
2023-04-21T21:29:03.386Z,100325.16
2023-04-21T21:31:49.971Z,100318.66
2023-04-21T21:34:30.697Z,100326.78
2023-04-21T21:37:17.854Z,100320.75
2023-04-21T21:40:12.826Z,100326.59
2023-04-21T21:42:53.222Z,100322.56
2023-04-21T21:45:39.782Z,100326.94
2023-04-21T21:48:26.858Z,100329.19
2023-04-21T21:51:13.817Z,100330.00
2023-04-21T21:53:54.296Z,100329.69
2023-04-21T21:56:40.837Z,100325.00
2023-04-21T21:59:21.805Z,100329.84
2023-04-21T22:02:08.995Z,100329.19
2023-04-21T22:04:55.999Z,100330.16
2023-04-21T22:07:35.782Z,100347.66
2023-04-21T22:10:22.773Z,100339.69
2023-04-21T22:13:09.808Z,100340.66
2023-04-21T22:15:53.623Z,100341.16
2023-04-21T22:18:40.838Z,100344.41
2023-04-21T22:21:21.264Z,100343.78
2023-04-21T22:24:07.721Z,100336.97
2023-04-21T22:26:54.781Z,100334.50
2023-04-21T22:29:34.853Z,100330.63
2023-04-21T22:32:21.796Z,100324.44
2023-04-21T22:35:08.763Z,100331.91
2023-04-21T22:38:02.806Z,100335.66
2023-04-21T22:40:49.804Z,100335.00
2023-04-21T22:43:29.986Z,100337.75
2023-04-21T22:46:16.793Z,100335.00
2023-04-21T22:49:03.861Z,100341.78
2023-04-21T22:51:44.565Z,100336.44
2023-04-21T22:54:31.779Z,100334.31
2023-04-21T22:57:12.130Z,100334.00
2023-04-21T22:59:58.774Z,100329.44
2023-04-21T23:02:45.825Z,100332.34
2023-04-21T23:05:32.696Z,100325.06
2023-04-21T23:08:19.696Z,100329.59
2023-04-21T23:11:06.657Z,100326.50
2023-04-21T23:13:47.065Z,100329.22
2023-04-21T23:16:33.699Z,100334.56
2023-04-21T23:19:20.760Z,100322.56
2023-04-21T23:22:07.727Z,100318.84
2023-04-21T23:24:48.175Z,100327.94
2023-04-21T23:27:34.725Z,100335.22
2023-04-21T23:30:15.544Z,100332.91
2023-04-21T23:33:02.718Z,100328.88
2023-04-21T23:35:43.238Z,100319.47
2023-04-21T23:38:29.667Z,100326.09
2023-04-21T23:41:16.859Z,100331.22
2023-04-21T23:43:56.624Z,100333.31
2023-04-21T23:46:37.204Z,100336.88
2023-04-21T23:49:23.724Z,100339.47
2023-04-21T23:52:10.669Z,100329.56
2023-04-21T23:54:50.875Z,100332.31
2023-04-21T23:57:37.621Z,100331.50
